sensor_id;sensor_type;location;lat;lon;timestamp;P1;P2;P0
54869;PMS5003;40756;-37.950;145.008;2023-06-10T00:00:22;31;31;
54869;PMS5003;40756;-37.950;145.008;2023-06-10T00:02:52;35;34;
54869;PMS5003;40756;-37.950;145.008;2023-06-10T00:05:22;29;29;
54869;PMS5003;40756;-37.950;145.008;2023-06-10T00:07:52;29;29;
54869;PMS5003;40756;-37.950;145.008;2023-06-10T00:10:21;31;30;
54869;PMS5003;40756;-37.950;145.008;2023-06-10T00:12:52;20;19;
54869;PMS5003;40756;-37.950;145.008;2023-06-10T00:15:21;7;7;
54869;PMS5003;40756;-37.950;145.008;2023-06-10T00:17:51;8;8;
54869;PMS5003;40756;-37.950;145.008;2023-06-10T00:20:21;10;9;
54869;PMS5003;40756;-37.950;145.008;2023-06-10T00:22:51;16;15;
54869;PMS5003;40756;-37.950;145.008;2023-06-10T00:25:21;19;19;
54869;PMS5003;40756;-37.950;145.008;2023-06-10T00:27:50;16;15;
54869;PMS5003;40756;-37.950;145.008;2023-06-10T00:30:20;11;10;
54869;PMS5003;40756;-37.950;145.008;2023-06-10T00:32:50;4;3;
54869;PMS5003;40756;-37.950;145.008;2023-06-10T00:35:19;2;2;
54869;PMS5003;40756;-37.950;145.008;2023-06-10T00:37:49;0;0;
54869;PMS5003;40756;-37.950;145.008;2023-06-10T00:40:19;2;1;
54869;PMS5003;40756;-37.950;145.008;2023-06-10T00:42:49;1;1;
54869;PMS5003;40756;-37.950;145.008;2023-06-10T00:45:18;3;1;
54869;PMS5003;40756;-37.950;145.008;2023-06-10T00:47:48;0;0;
54869;PMS5003;40756;-37.950;145.008;2023-06-10T00:50:18;1;1;
54869;PMS5003;40756;-37.950;145.008;2023-06-10T00:52:47;3;2;
54869;PMS5003;40756;-37.950;145.008;2023-06-10T00:55:17;0;0;
54869;PMS5003;40756;-37.950;145.008;2023-06-10T00:57:47;2;1;
54869;PMS5003;40756;-37.950;145.008;2023-06-10T01:00:17;0;0;
54869;PMS5003;40756;-37.950;145.008;2023-06-10T01:02:47;2;2;
54869;PMS5003;40756;-37.950;145.008;2023-06-10T01:05:16;2;1;
54869;PMS5003;40756;-37.950;145.008;2023-06-10T01:07:47;2;2;
54869;PMS5003;40756;-37.950;145.008;2023-06-10T01:10:29;3;2;
54869;PMS5003;40756;-37.950;145.008;2023-06-10T01:13:05;4;4;
54869;PMS5003;40756;-37.950;145.008;2023-06-10T01:15:38;6;5;
54869;PMS5003;40756;-37.950;145.008;2023-06-10T01:18:08;5;5;
54869;PMS5003;40756;-37.950;145.008;2023-06-10T01:20:37;4;4;
54869;PMS5003;40756;-37.950;145.008;2023-06-10T01:23:08;3;3;
54869;PMS5003;40756;-37.950;145.008;2023-06-10T01:25:39;2;1;
54869;PMS5003;40756;-37.950;145.008;2023-06-10T01:28:14;0;0;
54869;PMS5003;40756;-37.950;145.008;2023-06-10T01:30:48;2;1;
54869;PMS5003;40756;-37.950;145.008;2023-06-10T01:33:24;4;4;
54869;PMS5003;40756;-37.950;145.008;2023-06-10T01:35:55;1;1;
54869;PMS5003;40756;-37.950;145.008;2023-06-10T01:38:26;3;2;
54869;PMS5003;40756;-37.950;145.008;2023-06-10T01:40:58;1;1;
54869;PMS5003;40756;-37.950;145.008;2023-06-10T01:43:31;2;2;
54869;PMS5003;40756;-37.950;145.008;2023-06-10T01:46:02;2;2;
54869;PMS5003;40756;-37.950;145.008;2023-06-10T01:48:31;1;1;
54869;PMS5003;40756;-37.950;145.008;2023-06-10T01:51:02;1;1;
54869;PMS5003;40756;-37.950;145.008;2023-06-10T01:53:31;3;3;
54869;PMS5003;40756;-37.950;145.008;2023-06-10T01:56:01;3;3;
54869;PMS5003;40756;-37.950;145.008;2023-06-10T01:58:30;2;2;
54869;PMS5003;40756;-37.950;145.008;2023-06-10T02:01:00;1;1;
54869;PMS5003;40756;-37.950;145.008;2023-06-10T02:03:30;6;5;
54869;PMS5003;40756;-37.950;145.008;2023-06-10T02:05:59;4;3;
54869;PMS5003;40756;-37.950;145.008;2023-06-10T02:08:29;2;2;
54869;PMS5003;40756;-37.950;145.008;2023-06-10T02:10:58;0;0;
54869;PMS5003;40756;-37.950;145.008;2023-06-10T02:13:28;34;31;
54869;PMS5003;40756;-37.950;145.008;2023-06-10T02:15:58;3;3;
54869;PMS5003;40756;-37.950;145.008;2023-06-10T02:18:32;1;1;
54869;PMS5003;40756;-37.950;145.008;2023-06-10T02:21:02;2;2;
54869;PMS5003;40756;-37.950;145.008;2023-06-10T02:23:32;1;1;
54869;PMS5003;40756;-37.950;145.008;2023-06-10T02:26:02;0;0;
54869;PMS5003;40756;-37.950;145.008;2023-06-10T02:28:32;3;2;
54869;PMS5003;40756;-37.950;145.008;2023-06-10T02:31:01;1;1;
54869;PMS5003;40756;-37.950;145.008;2023-06-10T02:33:31;1;1;
54869;PMS5003;40756;-37.950;145.008;2023-06-10T02:36:00;1;1;
54869;PMS5003;40756;-37.950;145.008;2023-06-10T02:38:30;1;1;
54869;PMS5003;40756;-37.950;145.008;2023-06-10T02:40:59;2;1;
54869;PMS5003;40756;-37.950;145.008;2023-06-10T02:43:29;3;1;
54869;PMS5003;40756;-37.950;145.008;2023-06-10T02:45:59;3;2;
54869;PMS5003;40756;-37.950;145.008;2023-06-10T02:48:28;1;1;
54869;PMS5003;40756;-37.950;145.008;2023-06-10T02:50:58;2;2;
54869;PMS5003;40756;-37.950;145.008;2023-06-10T02:53:28;1;1;
54869;PMS5003;40756;-37.950;145.008;2023-06-10T02:55:57;3;1;
54869;PMS5003;40756;-37.950;145.008;2023-06-10T02:58:26;2;2;
54869;PMS5003;40756;-37.950;145.008;2023-06-10T03:00:56;1;1;
54869;PMS5003;40756;-37.950;145.008;2023-06-10T03:03:26;2;2;
54869;PMS5003;40756;-37.950;145.008;2023-06-10T03:05:55;2;1;
54869;PMS5003;40756;-37.950;145.008;2023-06-10T03:08:25;2;2;
54869;PMS5003;40756;-37.950;145.008;2023-06-10T03:10:54;2;1;
54869;PMS5003;40756;-37.950;145.008;2023-06-10T03:13:24;1;1;
54869;PMS5003;40756;-37.950;145.008;2023-06-10T03:15:54;4;3;
54869;PMS5003;40756;-37.950;145.008;2023-06-10T03:18:25;4;4;
54869;PMS5003;40756;-37.950;145.008;2023-06-10T03:20:54;1;1;
54869;PMS5003;40756;-37.950;145.008;2023-06-10T03:23:24;3;1;
54869;PMS5003;40756;-37.950;145.008;2023-06-10T03:25:54;1;1;
54869;PMS5003;40756;-37.950;145.008;2023-06-10T03:28:24;4;3;
54869;PMS5003;40756;-37.950;145.008;2023-06-10T03:30:54;3;2;
54869;PMS5003;40756;-37.950;145.008;2023-06-10T03:33:23;1;1;
54869;PMS5003;40756;-37.950;145.008;2023-06-10T03:35:53;3;3;
54869;PMS5003;40756;-37.950;145.008;2023-06-10T03:38:23;2;1;
54869;PMS5003;40756;-37.950;145.008;2023-06-10T03:40:52;5;5;
54869;PMS5003;40756;-37.950;145.008;2023-06-10T03:43:22;2;2;
54869;PMS5003;40756;-37.950;145.008;2023-06-10T03:45:51;5;4;
54869;PMS5003;40756;-37.950;145.008;2023-06-10T03:48:21;4;3;
54869;PMS5003;40756;-37.950;145.008;2023-06-10T03:50:51;12;9;
54869;PMS5003;40756;-37.950;145.008;2023-06-10T03:53:20;2;1;
54869;PMS5003;40756;-37.950;145.008;2023-06-10T03:55:49;2;1;
54869;PMS5003;40756;-37.950;145.008;2023-06-10T03:58:19;2;2;
54869;PMS5003;40756;-37.950;145.008;2023-06-10T04:00:49;6;6;
54869;PMS5003;40756;-37.950;145.008;2023-06-10T04:03:18;6;5;
54869;PMS5003;40756;-37.950;145.008;2023-06-10T04:05:48;4;3;
54869;PMS5003;40756;-37.950;145.008;2023-06-10T04:08:17;1;1;
54869;PMS5003;40756;-37.950;145.008;2023-06-10T04:10:47;1;1;
54869;PMS5003;40756;-37.950;145.008;2023-06-10T04:13:17;3;2;
54869;PMS5003;40756;-37.950;145.008;2023-06-10T04:15:46;2;2;
54869;PMS5003;40756;-37.950;145.008;2023-06-10T04:18:16;0;0;
54869;PMS5003;40756;-37.950;145.008;2023-06-10T04:20:45;2;2;
54869;PMS5003;40756;-37.950;145.008;2023-06-10T04:23:15;0;0;
54869;PMS5003;40756;-37.950;145.008;2023-06-10T04:25:45;2;2;
54869;PMS5003;40756;-37.950;145.008;2023-06-10T04:28:15;3;3;
54869;PMS5003;40756;-37.950;145.008;2023-06-10T04:30:45;3;3;
54869;PMS5003;40756;-37.950;145.008;2023-06-10T04:33:14;4;3;
54869;PMS5003;40756;-37.950;145.008;2023-06-10T04:35:44;7;7;
54869;PMS5003;40756;-37.950;145.008;2023-06-10T04:38:13;6;5;
54869;PMS5003;40756;-37.950;145.008;2023-06-10T04:40:43;4;4;
54869;PMS5003;40756;-37.950;145.008;2023-06-10T04:43:12;3;3;
54869;PMS5003;40756;-37.950;145.008;2023-06-10T04:45:42;4;3;
54869;PMS5003;40756;-37.950;145.008;2023-06-10T04:48:11;5;4;
54869;PMS5003;40756;-37.950;145.008;2023-06-10T04:50:41;5;5;
54869;PMS5003;40756;-37.950;145.008;2023-06-10T04:53:11;5;4;
54869;PMS5003;40756;-37.950;145.008;2023-06-10T04:55:40;4;3;
54869;PMS5003;40756;-37.950;145.008;2023-06-10T04:58:10;1;1;
54869;PMS5003;40756;-37.950;145.008;2023-06-10T05:00:39;2;2;
54869;PMS5003;40756;-37.950;145.008;2023-06-10T05:03:09;4;3;
54869;PMS5003;40756;-37.950;145.008;2023-06-10T05:05:38;3;2;
54869;PMS5003;40756;-37.950;145.008;2023-06-10T05:08:08;4;3;
54869;PMS5003;40756;-37.950;145.008;2023-06-10T05:10:38;3;3;
54869;PMS5003;40756;-37.950;145.008;2023-06-10T05:13:07;7;6;
54869;PMS5003;40756;-37.950;145.008;2023-06-10T05:15:37;2;2;
54869;PMS5003;40756;-37.950;145.008;2023-06-10T05:18:06;3;3;
54869;PMS5003;40756;-37.950;145.008;2023-06-10T05:20:36;2;2;
54869;PMS5003;40756;-37.950;145.008;2023-06-10T05:23:06;3;2;
54869;PMS5003;40756;-37.950;145.008;2023-06-10T05:25:35;3;3;
54869;PMS5003;40756;-37.950;145.008;2023-06-10T05:28:04;5;5;
54869;PMS5003;40756;-37.950;145.008;2023-06-10T05:30:35;2;2;
54869;PMS5003;40756;-37.950;145.008;2023-06-10T05:33:04;2;2;
54869;PMS5003;40756;-37.950;145.008;2023-06-10T05:35:34;4;4;
54869;PMS5003;40756;-37.950;145.008;2023-06-10T05:38:03;1;1;
54869;PMS5003;40756;-37.950;145.008;2023-06-10T05:40:33;2;2;
54869;PMS5003;40756;-37.950;145.008;2023-06-10T05:43:03;2;2;
54869;PMS5003;40756;-37.950;145.008;2023-06-10T05:45:32;2;2;
54869;PMS5003;40756;-37.950;145.008;2023-06-10T05:48:02;3;2;
54869;PMS5003;40756;-37.950;145.008;2023-06-10T05:50:31;2;2;
54869;PMS5003;40756;-37.950;145.008;2023-06-10T05:53:02;4;4;
54869;PMS5003;40756;-37.950;145.008;2023-06-10T05:55:32;2;2;
54869;PMS5003;40756;-37.950;145.008;2023-06-10T05:58:02;3;3;
54869;PMS5003;40756;-37.950;145.008;2023-06-10T06:00:31;7;4;
54869;PMS5003;40756;-37.950;145.008;2023-06-10T06:03:00;7;6;
54869;PMS5003;40756;-37.950;145.008;2023-06-10T06:05:30;6;6;
54869;PMS5003;40756;-37.950;145.008;2023-06-10T06:08:00;5;5;
54869;PMS5003;40756;-37.950;145.008;2023-06-10T06:10:29;5;5;
54869;PMS5003;40756;-37.950;145.008;2023-06-10T06:13:00;7;6;
54869;PMS5003;40756;-37.950;145.008;2023-06-10T06:15:29;6;5;
54869;PMS5003;40756;-37.950;145.008;2023-06-10T06:17:59;7;6;
54869;PMS5003;40756;-37.950;145.008;2023-06-10T06:20:29;4;4;
54869;PMS5003;40756;-37.950;145.008;2023-06-10T06:22:58;5;4;
54869;PMS5003;40756;-37.950;145.008;2023-06-10T06:25:28;5;4;
54869;PMS5003;40756;-37.950;145.008;2023-06-10T06:27:57;6;3;
54869;PMS5003;40756;-37.950;145.008;2023-06-10T06:30:27;5;4;
54869;PMS5003;40756;-37.950;145.008;2023-06-10T06:32:57;5;5;
54869;PMS5003;40756;-37.950;145.008;2023-06-10T06:35:27;4;4;
54869;PMS5003;40756;-37.950;145.008;2023-06-10T06:37:58;6;5;
54869;PMS5003;40756;-37.950;145.008;2023-06-10T06:40:28;7;7;
54869;PMS5003;40756;-37.950;145.008;2023-06-10T06:42:58;10;10;
54869;PMS5003;40756;-37.950;145.008;2023-06-10T06:45:27;10;9;
54869;PMS5003;40756;-37.950;145.008;2023-06-10T06:47:57;7;7;
54869;PMS5003;40756;-37.950;145.008;2023-06-10T06:50:26;7;6;
54869;PMS5003;40756;-37.950;145.008;2023-06-10T06:52:56;7;6;
54869;PMS5003;40756;-37.950;145.008;2023-06-10T06:55:25;5;5;
54869;PMS5003;40756;-37.950;145.008;2023-06-10T06:57:55;9;8;
54869;PMS5003;40756;-37.950;145.008;2023-06-10T07:00:25;6;5;
54869;PMS5003;40756;-37.950;145.008;2023-06-10T07:02:54;13;10;
54869;PMS5003;40756;-37.950;145.008;2023-06-10T07:05:24;9;7;
54869;PMS5003;40756;-37.950;145.008;2023-06-10T07:07:54;12;12;
54869;PMS5003;40756;-37.950;145.008;2023-06-10T07:10:23;8;8;
54869;PMS5003;40756;-37.950;145.008;2023-06-10T07:12:53;5;5;
54869;PMS5003;40756;-37.950;145.008;2023-06-10T07:15:22;8;8;
54869;PMS5003;40756;-37.950;145.008;2023-06-10T07:17:52;7;7;
54869;PMS5003;40756;-37.950;145.008;2023-06-10T07:20:22;7;6;
54869;PMS5003;40756;-37.950;145.008;2023-06-10T07:22:51;7;7;
54869;PMS5003;40756;-37.950;145.008;2023-06-10T07:25:21;6;6;
54869;PMS5003;40756;-37.950;145.008;2023-06-10T07:27:50;8;6;
54869;PMS5003;40756;-37.950;145.008;2023-06-10T07:30:20;6;6;
54869;PMS5003;40756;-37.950;145.008;2023-06-10T07:32:50;8;8;
54869;PMS5003;40756;-37.950;145.008;2023-06-10T07:35:20;7;6;
54869;PMS5003;40756;-37.950;145.008;2023-06-10T07:37:50;6;6;
54869;PMS5003;40756;-37.950;145.008;2023-06-10T07:40:20;9;8;
54869;PMS5003;40756;-37.950;145.008;2023-06-10T07:42:49;6;6;
54869;PMS5003;40756;-37.950;145.008;2023-06-10T07:45:19;10;8;
54869;PMS5003;40756;-37.950;145.008;2023-06-10T07:47:49;8;6;
54869;PMS5003;40756;-37.950;145.008;2023-06-10T07:50:18;6;6;
54869;PMS5003;40756;-37.950;145.008;2023-06-10T07:52:48;6;6;
54869;PMS5003;40756;-37.950;145.008;2023-06-10T07:55:17;9;9;
54869;PMS5003;40756;-37.950;145.008;2023-06-10T07:57:47;8;8;
54869;PMS5003;40756;-37.950;145.008;2023-06-10T08:00:17;10;8;
54869;PMS5003;40756;-37.950;145.008;2023-06-10T08:02:47;7;6;
54869;PMS5003;40756;-37.950;145.008;2023-06-10T08:05:17;11;9;
54869;PMS5003;40756;-37.950;145.008;2023-06-10T08:07:47;9;8;
54869;PMS5003;40756;-37.950;145.008;2023-06-10T08:10:16;8;8;
54869;PMS5003;40756;-37.950;145.008;2023-06-10T08:12:46;11;10;
54869;PMS5003;40756;-37.950;145.008;2023-06-10T08:15:15;9;8;
54869;PMS5003;40756;-37.950;145.008;2023-06-10T08:17:45;7;7;
54869;PMS5003;40756;-37.950;145.008;2023-06-10T08:20:15;9;9;
54869;PMS5003;40756;-37.950;145.008;2023-06-10T08:22:44;7;7;
54869;PMS5003;40756;-37.950;145.008;2023-06-10T08:25:13;10;10;
54869;PMS5003;40756;-37.950;145.008;2023-06-10T08:27:42;7;7;
54869;PMS5003;40756;-37.950;145.008;2023-06-10T08:30:12;7;7;
54869;PMS5003;40756;-37.950;145.008;2023-06-10T08:32:42;8;8;
54869;PMS5003;40756;-37.950;145.008;2023-06-10T08:35:11;9;9;
54869;PMS5003;40756;-37.950;145.008;2023-06-10T08:37:42;9;8;
54869;PMS5003;40756;-37.950;145.008;2023-06-10T08:40:12;10;10;
54869;PMS5003;40756;-37.950;145.008;2023-06-10T08:42:45;11;10;
54869;PMS5003;40756;-37.950;145.008;2023-06-10T08:45:20;10;10;
54869;PMS5003;40756;-37.950;145.008;2023-06-10T08:47:51;11;10;
54869;PMS5003;40756;-37.950;145.008;2023-06-10T08:50:24;10;9;
54869;PMS5003;40756;-37.950;145.008;2023-06-10T08:52:57;10;9;
54869;PMS5003;40756;-37.950;145.008;2023-06-10T08:55:29;10;10;
54869;PMS5003;40756;-37.950;145.008;2023-06-10T08:58:01;11;10;
54869;PMS5003;40756;-37.950;145.008;2023-06-10T09:00:32;10;10;
54869;PMS5003;40756;-37.950;145.008;2023-06-10T09:03:03;19;18;
54869;PMS5003;40756;-37.950;145.008;2023-06-10T09:05:34;12;12;
54869;PMS5003;40756;-37.950;145.008;2023-06-10T09:08:06;13;11;
54869;PMS5003;40756;-37.950;145.008;2023-06-10T09:10:35;13;12;
54869;PMS5003;40756;-37.950;145.008;2023-06-10T09:13:05;14;14;
54869;PMS5003;40756;-37.950;145.008;2023-06-10T09:15:35;12;11;
54869;PMS5003;40756;-37.950;145.008;2023-06-10T09:18:05;12;12;
54869;PMS5003;40756;-37.950;145.008;2023-06-10T09:20:34;12;12;
54869;PMS5003;40756;-37.950;145.008;2023-06-10T09:23:06;15;15;
54869;PMS5003;40756;-37.950;145.008;2023-06-10T09:25:37;13;12;
54869;PMS5003;40756;-37.950;145.008;2023-06-10T09:28:12;16;15;
54869;PMS5003;40756;-37.950;145.008;2023-06-10T09:30:42;17;15;
54869;PMS5003;40756;-37.950;145.008;2023-06-10T09:33:13;14;10;
54869;PMS5003;40756;-37.950;145.008;2023-06-10T09:35:47;9;9;
54869;PMS5003;40756;-37.950;145.008;2023-06-10T09:38:20;12;10;
54869;PMS5003;40756;-37.950;145.008;2023-06-10T09:40:50;12;12;
54869;PMS5003;40756;-37.950;145.008;2023-06-10T09:43:21;12;11;
54869;PMS5003;40756;-37.950;145.008;2023-06-10T09:45:50;16;15;
54869;PMS5003;40756;-37.950;145.008;2023-06-10T09:48:23;15;13;
54869;PMS5003;40756;-37.950;145.008;2023-06-10T09:50:52;17;15;
54869;PMS5003;40756;-37.950;145.008;2023-06-10T09:53:22;16;15;
54869;PMS5003;40756;-37.950;145.008;2023-06-10T09:55:52;13;12;
54869;PMS5003;40756;-37.950;145.008;2023-06-10T09:58:33;14;14;
54869;PMS5003;40756;-37.950;145.008;2023-06-10T10:01:06;15;12;
54869;PMS5003;40756;-37.950;145.008;2023-06-10T10:03:45;15;14;
54869;PMS5003;40756;-37.950;145.008;2023-06-10T10:06:15;22;21;
54869;PMS5003;40756;-37.950;145.008;2023-06-10T10:08:46;19;19;
54869;PMS5003;40756;-37.950;145.008;2023-06-10T10:11:18;22;18;
54869;PMS5003;40756;-37.950;145.008;2023-06-10T10:13:49;22;20;
54869;PMS5003;40756;-37.950;145.008;2023-06-10T10:16:20;21;20;
54869;PMS5003;40756;-37.950;145.008;2023-06-10T10:18:55;19;18;
54869;PMS5003;40756;-37.950;145.008;2023-06-10T10:21:29;15;15;
54869;PMS5003;40756;-37.950;145.008;2023-06-10T10:24:07;15;14;
54869;PMS5003;40756;-37.950;145.008;2023-06-10T10:26:44;12;12;
54869;PMS5003;40756;-37.950;145.008;2023-06-10T10:29:19;10;10;
54869;PMS5003;40756;-37.950;145.008;2023-06-10T10:31:51;12;12;
54869;PMS5003;40756;-37.950;145.008;2023-06-10T10:34:24;11;11;
54869;PMS5003;40756;-37.950;145.008;2023-06-10T10:36:57;14;12;
54869;PMS5003;40756;-37.950;145.008;2023-06-10T10:39:28;9;9;
54869;PMS5003;40756;-37.950;145.008;2023-06-10T10:42:00;8;8;
54869;PMS5003;40756;-37.950;145.008;2023-06-10T10:44:30;7;7;
54869;PMS5003;40756;-37.950;145.008;2023-06-10T10:47:02;7;7;
54869;PMS5003;40756;-37.950;145.008;2023-06-10T10:49:36;10;9;
54869;PMS5003;40756;-37.950;145.008;2023-06-10T10:52:10;12;12;
54869;PMS5003;40756;-37.950;145.008;2023-06-10T10:54:43;12;11;
54869;PMS5003;40756;-37.950;145.008;2023-06-10T10:57:14;12;12;
54869;PMS5003;40756;-37.950;145.008;2023-06-10T10:59:46;13;12;
54869;PMS5003;40756;-37.950;145.008;2023-06-10T11:02:33;14;14;
54869;PMS5003;40756;-37.950;145.008;2023-06-10T11:05:05;11;11;
54869;PMS5003;40756;-37.950;145.008;2023-06-10T11:07:35;12;11;
54869;PMS5003;40756;-37.950;145.008;2023-06-10T11:10:06;13;13;
54869;PMS5003;40756;-37.950;145.008;2023-06-10T11:12:53;11;11;
54869;PMS5003;40756;-37.950;145.008;2023-06-10T11:15:24;12;12;
54869;PMS5003;40756;-37.950;145.008;2023-06-10T11:18:28;9;9;
54869;PMS5003;40756;-37.950;145.008;2023-06-10T11:21:02;7;7;
54869;PMS5003;40756;-37.950;145.008;2023-06-10T11:23:34;5;5;
54869;PMS5003;40756;-37.950;145.008;2023-06-10T11:26:16;8;8;
54869;PMS5003;40756;-37.950;145.008;2023-06-10T11:29:04;7;5;
54869;PMS5003;40756;-37.950;145.008;2023-06-10T11:31:39;13;10;
54869;PMS5003;40756;-37.950;145.008;2023-06-10T11:34:10;12;12;
54869;PMS5003;40756;-37.950;145.008;2023-06-10T11:36:40;9;9;
54869;PMS5003;40756;-37.950;145.008;2023-06-10T11:39:11;9;9;
54869;PMS5003;40756;-37.950;145.008;2023-06-10T11:41:41;12;11;
54869;PMS5003;40756;-37.950;145.008;2023-06-10T11:44:11;12;11;
54869;PMS5003;40756;-37.950;145.008;2023-06-10T11:46:41;9;8;
54869;PMS5003;40756;-37.950;145.008;2023-06-10T11:49:11;7;7;
54869;PMS5003;40756;-37.950;145.008;2023-06-10T11:51:41;8;7;
54869;PMS5003;40756;-37.950;145.008;2023-06-10T11:54:11;7;6;
54869;PMS5003;40756;-37.950;145.008;2023-06-10T11:56:40;5;4;
54869;PMS5003;40756;-37.950;145.008;2023-06-10T11:59:10;6;5;
54869;PMS5003;40756;-37.950;145.008;2023-06-10T12:01:42;5;5;
54869;PMS5003;40756;-37.950;145.008;2023-06-10T12:04:17;6;5;
54869;PMS5003;40756;-37.950;145.008;2023-06-10T12:06:47;7;7;
54869;PMS5003;40756;-37.950;145.008;2023-06-10T12:09:19;8;7;
54869;PMS5003;40756;-37.950;145.008;2023-06-10T12:11:50;9;9;
54869;PMS5003;40756;-37.950;145.008;2023-06-10T12:14:55;6;6;
54869;PMS5003;40756;-37.950;145.008;2023-06-10T12:17:36;9;9;
54869;PMS5003;40756;-37.950;145.008;2023-06-10T12:20:06;10;9;
54869;PMS5003;40756;-37.950;145.008;2023-06-10T12:22:51;7;7;
54869;PMS5003;40756;-37.950;145.008;2023-06-10T12:25:24;9;9;
54869;PMS5003;40756;-37.950;145.008;2023-06-10T12:27:55;8;8;
54869;PMS5003;40756;-37.950;145.008;2023-06-10T12:30:26;10;9;
54869;PMS5003;40756;-37.950;145.008;2023-06-10T12:32:56;7;7;
54869;PMS5003;40756;-37.950;145.008;2023-06-10T12:35:26;10;8;
54869;PMS5003;40756;-37.950;145.008;2023-06-10T12:37:55;8;7;
54869;PMS5003;40756;-37.950;145.008;2023-06-10T12:40:27;10;10;
54869;PMS5003;40756;-37.950;145.008;2023-06-10T12:42:59;8;8;
54869;PMS5003;40756;-37.950;145.008;2023-06-10T12:45:29;8;7;
54869;PMS5003;40756;-37.950;145.008;2023-06-10T12:48:08;6;6;
54869;PMS5003;40756;-37.950;145.008;2023-06-10T12:50:39;11;9;
54869;PMS5003;40756;-37.950;145.008;2023-06-10T12:53:10;8;8;
54869;PMS5003;40756;-37.950;145.008;2023-06-10T12:55:40;7;7;
54869;PMS5003;40756;-37.950;145.008;2023-06-10T12:58:11;6;6;
54869;PMS5003;40756;-37.950;145.008;2023-06-10T13:00:40;4;4;
54869;PMS5003;40756;-37.950;145.008;2023-06-10T13:03:10;5;5;
54869;PMS5003;40756;-37.950;145.008;2023-06-10T13:05:40;4;4;
54869;PMS5003;40756;-37.950;145.008;2023-06-10T13:08:10;6;6;
54869;PMS5003;40756;-37.950;145.008;2023-06-10T13:10:40;5;5;
54869;PMS5003;40756;-37.950;145.008;2023-06-10T13:13:09;5;5;
54869;PMS5003;40756;-37.950;145.008;2023-06-10T13:15:39;6;6;
54869;PMS5003;40756;-37.950;145.008;2023-06-10T13:18:09;10;8;
54869;PMS5003;40756;-37.950;145.008;2023-06-10T13:20:38;7;7;
54869;PMS5003;40756;-37.950;145.008;2023-06-10T13:23:08;10;10;
54869;PMS5003;40756;-37.950;145.008;2023-06-10T13:25:38;9;8;
54869;PMS5003;40756;-37.950;145.008;2023-06-10T13:28:07;10;10;
54869;PMS5003;40756;-37.950;145.008;2023-06-10T13:30:37;10;10;
54869;PMS5003;40756;-37.950;145.008;2023-06-10T13:33:07;10;10;
54869;PMS5003;40756;-37.950;145.008;2023-06-10T13:35:36;11;11;
54869;PMS5003;40756;-37.950;145.008;2023-06-10T13:38:06;10;9;
54869;PMS5003;40756;-37.950;145.008;2023-06-10T13:40:35;9;8;
54869;PMS5003;40756;-37.950;145.008;2023-06-10T13:43:05;14;14;
54869;PMS5003;40756;-37.950;145.008;2023-06-10T13:45:35;11;11;
54869;PMS5003;40756;-37.950;145.008;2023-06-10T13:48:05;12;11;
54869;PMS5003;40756;-37.950;145.008;2023-06-10T13:50:34;9;9;
54869;PMS5003;40756;-37.950;145.008;2023-06-10T13:53:04;8;8;
54869;PMS5003;40756;-37.950;145.008;2023-06-10T13:55:34;6;6;
54869;PMS5003;40756;-37.950;145.008;2023-06-10T13:58:04;7;7;
54869;PMS5003;40756;-37.950;145.008;2023-06-10T14:00:34;5;4;
54869;PMS5003;40756;-37.950;145.008;2023-06-10T14:03:04;8;8;
54869;PMS5003;40756;-37.950;145.008;2023-06-10T14:05:33;6;6;
54869;PMS5003;40756;-37.950;145.008;2023-06-10T14:08:03;6;6;
54869;PMS5003;40756;-37.950;145.008;2023-06-10T14:10:33;9;7;
54869;PMS5003;40756;-37.950;145.008;2023-06-10T14:13:03;7;5;
54869;PMS5003;40756;-37.950;145.008;2023-06-10T14:15:32;4;4;
54869;PMS5003;40756;-37.950;145.008;2023-06-10T14:18:02;5;4;
54869;PMS5003;40756;-37.950;145.008;2023-06-10T14:20:31;2;2;
54869;PMS5003;40756;-37.950;145.008;2023-06-10T14:23:01;3;3;
54869;PMS5003;40756;-37.950;145.008;2023-06-10T14:25:31;4;4;
54869;PMS5003;40756;-37.950;145.008;2023-06-10T14:28:01;3;3;
54869;PMS5003;40756;-37.950;145.008;2023-06-10T14:30:30;5;5;
54869;PMS5003;40756;-37.950;145.008;2023-06-10T14:33:00;3;3;
54869;PMS5003;40756;-37.950;145.008;2023-06-10T14:35:29;4;4;
54869;PMS5003;40756;-37.950;145.008;2023-06-10T14:37:59;5;5;
54869;PMS5003;40756;-37.950;145.008;2023-06-10T14:40:29;4;4;
54869;PMS5003;40756;-37.950;145.008;2023-06-10T14:42:59;7;6;
54869;PMS5003;40756;-37.950;145.008;2023-06-10T14:45:29;5;5;
54869;PMS5003;40756;-37.950;145.008;2023-06-10T14:47:59;5;4;
54869;PMS5003;40756;-37.950;145.008;2023-06-10T14:50:28;3;3;
54869;PMS5003;40756;-37.950;145.008;2023-06-10T14:52:58;3;3;
54869;PMS5003;40756;-37.950;145.008;2023-06-10T14:55:28;5;4;
54869;PMS5003;40756;-37.950;145.008;2023-06-10T14:57:57;4;3;
54869;PMS5003;40756;-37.950;145.008;2023-06-10T15:00:27;4;4;
54869;PMS5003;40756;-37.950;145.008;2023-06-10T15:02:57;4;4;
54869;PMS5003;40756;-37.950;145.008;2023-06-10T15:05:26;3;3;
54869;PMS5003;40756;-37.950;145.008;2023-06-10T15:07:56;4;4;
54869;PMS5003;40756;-37.950;145.008;2023-06-10T15:10:25;4;3;
54869;PMS5003;40756;-37.950;145.008;2023-06-10T15:12:55;1;1;
54869;PMS5003;40756;-37.950;145.008;2023-06-10T15:15:25;3;3;
54869;PMS5003;40756;-37.950;145.008;2023-06-10T15:17:54;4;4;
54869;PMS5003;40756;-37.950;145.008;2023-06-10T15:20:24;4;3;
54869;PMS5003;40756;-37.950;145.008;2023-06-10T15:22:53;3;3;
54869;PMS5003;40756;-37.950;145.008;2023-06-10T15:25:23;4;3;
54869;PMS5003;40756;-37.950;145.008;2023-06-10T15:27:53;5;4;
54869;PMS5003;40756;-37.950;145.008;2023-06-10T15:30:22;3;2;
54869;PMS5003;40756;-37.950;145.008;2023-06-10T15:32:52;3;3;
54869;PMS5003;40756;-37.950;145.008;2023-06-10T15:35:22;3;3;
54869;PMS5003;40756;-37.950;145.008;2023-06-10T15:37:51;4;4;
54869;PMS5003;40756;-37.950;145.008;2023-06-10T15:40:21;2;2;
54869;PMS5003;40756;-37.950;145.008;2023-06-10T15:42:50;6;5;
54869;PMS5003;40756;-37.950;145.008;2023-06-10T15:45:20;6;6;
54869;PMS5003;40756;-37.950;145.008;2023-06-10T15:47:51;7;5;
54869;PMS5003;40756;-37.950;145.008;2023-06-10T15:50:20;4;4;
54869;PMS5003;40756;-37.950;145.008;2023-06-10T15:52:50;3;2;
54869;PMS5003;40756;-37.950;145.008;2023-06-10T15:55:20;3;3;
54869;PMS5003;40756;-37.950;145.008;2023-06-10T15:57:49;3;3;
54869;PMS5003;40756;-37.950;145.008;2023-06-10T16:00:19;4;3;
54869;PMS5003;40756;-37.950;145.008;2023-06-10T16:02:49;2;2;
54869;PMS5003;40756;-37.950;145.008;2023-06-10T16:05:18;3;3;
54869;PMS5003;40756;-37.950;145.008;2023-06-10T16:07:48;2;2;
54869;PMS5003;40756;-37.950;145.008;2023-06-10T16:10:18;3;3;
54869;PMS5003;40756;-37.950;145.008;2023-06-10T16:12:47;3;3;
54869;PMS5003;40756;-37.950;145.008;2023-06-10T16:15:17;4;3;